Time;durP1;ratioP1;P1;durP2;ratioP2;P2;SDS_P1;SDS_P2;PMS_P1;PMS_P2;Temp;Humidity;BMP_temperature;BMP_pressure;BME280_temperature;BME280_humidity;BME280_pressure;Samples;Min_cycle;Max_cycle;Signal;HPM_P1;HPM_P2
2021/11/24 00:00:56;;;;;;;8.38;5.22;;;17.00;56.80;;;;;;4275663;27;20059;-75
2021/11/24 00:03:00;;;;;;;9.07;5.38;;;16.90;56.90;;;;;;4268712;27;20046;-72
2021/11/24 00:05:04;;;;;;;7.80;5.45;;;16.90;57.00;;;;;;4260871;27;20058;-72
2021/11/24 00:07:07;;;;;;;9.35;5.45;;;16.90;57.10;;;;;;4259012;27;20059;-72
2021/11/24 00:09:10;;;;;;;8.35;5.35;;;16.80;57.10;;;;;;4268107;27;20273;-72
2021/11/24 00:11:13;;;;;;;9.48;5.60;;;16.80;57.20;;;;;;4257684;27;20072;-72
2021/11/24 00:13:16;;;;;;;8.20;5.85;;;16.70;57.20;;;;;;4265263;27;20377;-73
2021/11/24 00:15:19;;;;;;;10.57;6.25;;;16.70;57.30;;;;;;4262505;27;20100;-72
2021/11/24 00:17:22;;;;;;;10.07;6.32;;;16.70;57.40;;;;;;4258021;27;20088;-72
2021/11/24 00:19:27;;;;;;;7.63;5.80;;;16.70;57.40;;;;;;4268770;27;20043;-72
2021/11/24 00:21:30;;;;;;;9.20;5.90;;;16.60;57.40;;;;;;4238924;28;20047;-72
2021/11/24 00:23:33;;;;;;;8.77;5.72;;;16.60;57.40;;;;;;4238472;28;20255;-72
2021/11/24 00:25:36;;;;;;;9.43;6.10;;;16.50;57.50;;;;;;4239147;28;20047;-72
2021/11/24 00:27:39;;;;;;;6.35;5.57;;;16.50;57.60;;;;;;4239934;28;20054;-72
2021/11/24 00:29:42;;;;;;;8.07;5.53;;;16.50;57.60;;;;;;4239367;28;20055;-72
2021/11/24 00:31:45;;;;;;;7.60;5.47;;;16.50;57.70;;;;;;4239519;28;20055;-72
2021/11/24 00:33:48;;;;;;;9.98;6.05;;;16.50;57.80;;;;;;4238002;28;20572;-72
2021/11/24 00:35:52;;;;;;;8.40;6.28;;;16.40;57.80;;;;;;4239756;28;20047;-72
2021/11/24 00:37:55;;;;;;;7.20;5.18;;;16.40;57.80;;;;;;4239803;28;20055;-72
2021/11/24 00:39:59;;;;;;;7.05;5.47;;;16.40;57.90;;;;;;4239793;28;20266;-72
2021/11/24 00:42:02;;;;;;;6.80;5.28;;;16.40;58.00;;;;;;4239000;28;20055;-72
2021/11/24 00:44:05;;;;;;;6.80;5.32;;;16.30;58.00;;;;;;4239538;28;20039;-71
2021/11/24 00:46:08;;;;;;;11.25;5.53;;;16.30;58.00;;;;;;4240075;28;20327;-72
2021/11/24 00:48:11;;;;;;;7.30;5.70;;;16.30;58.10;;;;;;4240187;28;20047;-72
2021/11/24 00:50:14;;;;;;;6.68;5.20;;;16.30;58.10;;;;;;4239570;28;20051;-72
2021/11/24 00:52:18;;;;;;;8.13;5.88;;;16.30;58.30;;;;;;4239282;27;20100;-71
2021/11/24 00:54:21;;;;;;;8.23;5.28;;;16.30;58.30;;;;;;4239176;28;20044;-74
2021/11/24 00:56:24;;;;;;;7.60;5.38;;;16.20;58.30;;;;;;4239467;28;20266;-73
2021/11/24 00:58:27;;;;;;;8.70;5.13;;;16.20;58.40;;;;;;4239678;28;20058;-74
2021/11/24 01:00:31;;;;;;;8.52;5.32;;;16.20;58.40;;;;;;4236914;28;20067;-73
2021/11/24 01:02:34;;;;;;;8.27;5.95;;;16.20;58.60;;;;;;4238299;28;20058;-73
2021/11/24 01:04:37;;;;;;;7.47;5.28;;;16.10;58.60;;;;;;4239261;28;20070;-72
2021/11/24 01:06:40;;;;;;;6.35;5.18;;;16.10;58.60;;;;;;4239466;28;20048;-72
2021/11/24 01:08:45;;;;;;;8.52;5.55;;;16.10;58.60;;;;;;4238727;28;20051;-73
2021/11/24 01:10:48;;;;;;;8.25;6.07;;;16.10;58.70;;;;;;4238690;28;20043;-74
2021/11/24 01:12:51;;;;;;;6.68;5.05;;;16.10;58.70;;;;;;4237797;28;20097;-73
2021/11/24 01:14:54;;;;;;;9.20;5.63;;;16.10;58.80;;;;;;4238970;28;20048;-74
2021/11/24 01:16:57;;;;;;;8.55;5.75;;;16.00;58.80;;;;;;4239270;27;20047;-73
2021/11/24 01:19:00;;;;;;;6.22;4.97;;;16.00;58.90;;;;;;4237905;28;20124;-72
2021/11/24 01:21:04;;;;;;;5.80;5.10;;;16.00;58.90;;;;;;4242633;27;20047;-70
2021/11/24 01:23:07;;;;;;;8.43;6.00;;;16.00;58.90;;;;;;4272595;27;20051;-71
2021/11/24 01:25:12;;;;;;;6.63;4.95;;;16.00;59.00;;;;;;4269784;27;20932;-72
2021/11/24 01:27:15;;;;;;;8.13;6.03;;;15.90;59.00;;;;;;4264137;27;20135;-71
2021/11/24 01:29:18;;;;;;;8.15;6.00;;;15.90;59.00;;;;;;4273286;27;20047;-72
2021/11/24 01:31:21;;;;;;;8.27;5.93;;;15.90;59.00;;;;;;4261077;27;20050;-71
2021/11/24 01:33:24;;;;;;;6.40;4.95;;;15.90;59.10;;;;;;4254471;27;20047;-72
2021/11/24 01:35:27;;;;;;;11.57;5.38;;;15.90;59.10;;;;;;4269155;27;20043;-72
2021/11/24 01:37:30;;;;;;;8.48;5.53;;;15.80;59.20;;;;;;4263411;27;20083;-73
2021/11/24 01:39:33;;;;;;;8.35;5.22;;;15.90;59.20;;;;;;4269975;27;20054;-71
2021/11/24 01:41:38;;;;;;;8.40;4.90;;;15.80;59.20;;;;;;4257991;27;20063;-71
2021/11/24 01:43:41;;;;;;;9.55;5.97;;;15.80;59.20;;;;;;4271405;27;20046;-70
2021/11/24 01:45:44;;;;;;;7.80;5.40;;;15.80;59.20;;;;;;4270263;27;20060;-71
2021/11/24 01:47:48;;;;;;;6.30;5.00;;;15.80;59.30;;;;;;4262086;27;20057;-70
2021/11/24 01:49:51;;;;;;;7.27;6.00;;;15.80;59.40;;;;;;4272309;27;20057;-73
2021/11/24 01:51:58;;;;;;;8.80;6.30;;;15.80;59.40;;;;;;4261073;27;20047;-73
2021/11/24 01:54:01;;;;;;;7.57;5.90;;;15.70;59.50;;;;;;4271591;27;20076;-73
2021/11/24 01:56:04;;;;;;;8.07;6.10;;;15.70;59.50;;;;;;4267097;27;20046;-74
2021/11/24 01:58:09;;;;;;;8.57;5.65;;;15.70;59.60;;;;;;4265576;27;20047;-73
2021/11/24 02:00:14;;;;;;;8.82;6.20;;;15.70;59.70;;;;;;4255554;27;20051;-73
2021/11/24 02:02:17;;;;;;;7.25;5.65;;;15.70;59.70;;;;;;4266221;27;20047;-73
2021/11/24 02:04:21;;;;;;;10.05;6.68;;;15.60;59.60;;;;;;4256613;27;20395;-74
2021/11/24 02:06:24;;;;;;;6.63;5.28;;;15.60;59.80;;;;;;4255182;27;20043;-73
2021/11/24 02:08:27;;;;;;;10.35;6.90;;;15.60;59.80;;;;;;4263830;27;20043;-72
2021/11/24 02:10:30;;;;;;;7.95;6.18;;;15.60;59.80;;;;;;4252462;27;20058;-73
2021/11/24 02:12:33;;;;;;;8.00;6.03;;;15.60;59.80;;;;;;4264570;27;20047;-73
2021/11/24 02:14:38;;;;;;;7.05;5.40;;;15.60;59.90;;;;;;4257224;27;20115;-71
2021/11/24 02:16:42;;;;;;;;;;;15.60;59.90;;;;;;4256409;27;20051;-74
2021/11/24 02:18:45;;;;;;;8.73;5.80;;;15.60;59.90;;;;;;4262746;27;20302;-73
2021/11/24 02:20:50;;;;;;;9.07;6.25;;;15.50;59.90;;;;;;4252728;27;20480;-73
2021/11/24 02:22:53;;;;;;;9.55;6.90;;;15.50;59.90;;;;;;4265183;27;20043;-73
2021/11/24 02:24:56;;;;;;;8.13;6.20;;;15.50;60.00;;;;;;4255690;27;20067;-73
2021/11/24 02:27:00;;;;;;;9.80;7.05;;;15.50;60.00;;;;;;4255950;27;20051;-73
2021/11/24 02:29:03;;;;;;;10.68;7.07;;;15.50;60.10;;;;;;4242979;27;20365;-73
2021/11/24 02:31:17;;;;;;;12.73;7.47;;;15.40;60.10;;;;;;4271626;27;20065;-73
2021/11/24 02:33:20;;;;;;;10.05;7.20;;;15.50;60.20;;;;;;4260671;27;20043;-73
2021/11/24 02:35:23;;;;;;;11.10;7.40;;;15.40;60.20;;;;;;4271064;27;20042;-73
2021/11/24 02:37:27;;;;;;;9.50;7.07;;;15.40;60.30;;;;;;4266443;27;20042;-72
2021/11/24 02:39:31;;;;;;;10.23;6.78;;;15.40;60.20;;;;;;4261118;27;20091;-73
2021/11/24 02:41:35;;;;;;;9.45;7.55;;;15.40;60.20;;;;;;4271645;27;20065;-73
2021/11/24 02:43:39;;;;;;;9.32;6.80;;;15.40;60.30;;;;;;4243083;28;20047;-73
2021/11/24 02:45:42;;;;;;;9.38;7.43;;;15.40;60.40;;;;;;4270123;27;20342;-73
2021/11/24 02:47:45;;;;;;;8.55;7.35;;;15.40;60.30;;;;;;4267691;27;20049;-73
2021/11/24 02:49:49;;;;;;;8.68;6.85;;;15.40;60.30;;;;;;4265845;27;20304;-73
2021/11/24 02:51:52;;;;;;;8.95;7.22;;;15.30;60.40;;;;;;4254584;27;20051;-73
2021/11/24 02:53:57;;;;;;;9.95;6.95;;;15.30;60.40;;;;;;4264490;27;20051;-73
2021/11/24 02:56:00;;;;;;;11.85;7.63;;;15.30;60.30;;;;;;4256675;27;20053;-73
2021/11/24 02:58:03;;;;;;;12.00;7.10;;;15.30;60.40;;;;;;4256133;27;20266;-73
2021/11/24 03:00:13;;;;;;;10.38;7.15;;;15.30;60.50;;;;;;4266151;27;20043;-73
2021/11/24 03:02:16;;;;;;;9.57;7.45;;;15.30;60.50;;;;;;4253151;27;20055;-73
2021/11/24 03:04:25;;;;;;;9.23;7.20;;;15.30;60.50;;;;;;4265463;27;20050;-74
2021/11/24 03:06:28;;;;;;;9.63;7.75;;;15.30;60.50;;;;;;4255878;27;20280;-74
2021/11/24 03:08:31;;;;;;;10.57;7.75;;;15.20;60.50;;;;;;4257301;27;20123;-73
2021/11/24 03:10:35;;;;;;;10.63;8.07;;;15.20;60.60;;;;;;4264632;27;20100;-73
2021/11/24 03:12:39;;;;;;;9.68;7.90;;;15.20;60.50;;;;;;4254854;27;20226;-73
2021/11/24 03:14:42;;;;;;;8.10;7.05;;;15.20;60.70;;;;;;4263827;27;20277;-74
2021/11/24 03:16:45;;;;;;;9.73;7.95;;;15.20;60.60;;;;;;4254171;27;20324;-73
2021/11/24 03:18:47;;;;;;;9.63;7.40;;;15.20;60.60;;;;;;4258522;27;20074;-73
2021/11/24 03:20:50;;;;;;;9.77;7.75;;;15.20;60.60;;;;;;4260974;27;20047;-73
2021/11/24 03:22:54;;;;;;;9.85;7.45;;;15.20;60.60;;;;;;4273776;27;20054;-73
2021/11/24 03:24:58;;;;;;;11.00;8.40;;;15.20;60.70;;;;;;4264460;27;20051;-73
2021/11/24 03:27:03;;;;;;;10.40;7.93;;;15.10;60.60;;;;;;4269723;27;20050;-74
2021/11/24 03:29:06;;;;;;;9.32;7.45;;;15.20;60.70;;;;;;4255047;27;20072;-73
2021/11/24 03:31:09;;;;;;;10.20;7.50;;;15.20;60.70;;;;;;4263968;27;20043;-74
2021/11/24 03:33:12;;;;;;;8.93;7.55;;;15.10;60.70;;;;;;4274839;27;20119;-73
2021/11/24 03:35:16;;;;;;;11.27;8.00;;;15.10;60.70;;;;;;4264726;27;20096;-73
2021/11/24 03:37:19;;;;;;;9.63;7.75;;;15.10;60.80;;;;;;4257702;27;20351;-73
2021/11/24 03:39:22;;;;;;;10.27;8.00;;;15.10;60.80;;;;;;4259259;27;20243;-73
2021/11/24 03:41:25;;;;;;;9.25;7.80;;;15.10;60.70;;;;;;4263695;27;20062;-73
2021/11/24 03:43:30;;;;;;;9.80;8.02;;;15.10;60.80;;;;;;4275156;27;20065;-73
2021/11/24 03:45:35;;;;;;;12.82;8.63;;;15.10;60.80;;;;;;4264773;27;20039;-74
2021/11/24 03:47:38;;;;;;;;;;;15.10;60.90;;;;;;4272972;27;20118;-74
2021/11/24 03:49:41;;;;;;;9.68;7.65;;;15.00;60.80;;;;;;4270438;27;19990;-74
2021/11/24 03:51:44;;;;;;;9.35;7.45;;;15.00;60.80;;;;;;4269443;27;20093;-74
2021/11/24 03:53:47;;;;;;;9.32;8.13;;;15.00;60.90;;;;;;4257486;27;20071;-73
2021/11/24 03:55:50;;;;;;;10.35;8.02;;;15.00;60.90;;;;;;4266552;27;20127;-73
2021/11/24 03:57:53;;;;;;;10.38;7.88;;;15.00;60.90;;;;;;4260777;27;20390;-74
2021/11/24 03:59:57;;;;;;;11.32;8.38;;;15.00;60.90;;;;;;4258677;27;20114;-75
2021/11/24 04:02:01;;;;;;;9.77;7.90;;;15.00;60.90;;;;;;4268678;27;20076;-73
2021/11/24 04:04:04;;;;;;;10.30;8.25;;;15.00;61.00;;;;;;4257568;27;20072;-73
2021/11/24 04:06:09;;;;;;;10.27;8.40;;;15.00;60.90;;;;;;4266094;27;20046;-73
2021/11/24 04:08:12;;;;;;;12.45;8.95;;;15.00;61.00;;;;;;4260768;27;20066;-73
2021/11/24 04:10:16;;;;;;;9.90;7.82;;;15.00;61.00;;;;;;4258670;27;20047;-73
2021/11/24 04:12:19;;;;;;;10.23;7.90;;;15.00;60.90;;;;;;4268484;27;20047;-73
2021/11/24 04:14:22;;;;;;;11.73;9.02;;;14.90;60.90;;;;;;4256835;27;20051;-73
2021/11/24 04:16:26;;;;;;;11.25;8.05;;;14.90;60.90;;;;;;4265272;27;20054;-73
2021/11/24 04:18:29;;;;;;;11.50;8.15;;;14.90;60.90;;;;;;4260975;27;20055;-74
2021/11/24 04:20:33;;;;;;;11.02;8.77;;;14.90;60.90;;;;;;4258465;27;20103;-74
2021/11/24 04:22:36;;;;;;;9.90;8.25;;;14.90;60.90;;;;;;4250593;27;20093;-73
2021/11/24 04:24:40;;;;;;;11.32;7.88;;;14.90;61.00;;;;;;4257119;27;20282;-75
2021/11/24 04:26:43;;;;;;;11.47;8.57;;;14.90;61.00;;;;;;4264686;27;20066;-73
2021/11/24 04:28:46;;;;;;;10.07;8.02;;;14.90;61.00;;;;;;4261634;27;20343;-73
2021/11/24 04:30:49;;;;;;;10.32;8.07;;;14.90;61.10;;;;;;4258405;27;20122;-74
2021/11/24 04:32:54;;;;;;;10.82;8.40;;;14.90;61.00;;;;;;4267881;27;20050;-74
2021/11/24 04:34:57;;;;;;;10.15;7.90;;;14.90;61.10;;;;;;4238832;28;20125;-74
2021/11/24 04:37:00;;;;;;;10.07;7.78;;;14.90;61.00;;;;;;4263636;27;20251;-74
2021/11/24 04:39:03;;;;;;;10.88;8.88;;;14.90;61.10;;;;;;4262046;27;20067;-73
2021/11/24 04:41:07;;;;;;;10.60;8.13;;;14.90;61.10;;;;;;4258174;27;20305;-74
2021/11/24 04:43:12;;;;;;;10.32;8.10;;;14.80;61.00;;;;;;4268366;27;20074;-73
2021/11/24 04:45:16;;;;;;;11.95;9.15;;;14.80;61.00;;;;;;4256352;27;20335;-73
2021/11/24 04:47:19;;;;;;;10.45;7.85;;;14.80;61.00;;;;;;4263584;27;20053;-73
2021/11/24 04:49:24;;;;;;;11.93;9.02;;;14.80;61.00;;;;;;4261496;27;20058;-74
2021/11/24 04:51:27;;;;;;;10.90;8.40;;;14.80;61.00;;;;;;4257599;27;20047;-73
2021/11/24 04:53:30;;;;;;;12.27;9.20;;;14.80;61.00;;;;;;4268287;27;20050;-74
2021/11/24 04:55:33;;;;;;;11.15;8.82;;;14.80;61.00;;;;;;4256294;27;20058;-73
2021/11/24 04:57:36;;;;;;;10.98;8.27;;;14.80;61.10;;;;;;4262977;27;20286;-73
2021/11/24 04:59:40;;;;;;;12.73;9.32;;;14.80;61.10;;;;;;4262383;27;20051;-73
2021/11/24 05:01:44;;;;;;;10.38;8.32;;;14.80;61.10;;;;;;4257881;27;20076;-73
2021/11/24 05:03:47;;;;;;;12.68;9.32;;;14.80;61.10;;;;;;4267663;27;20111;-74
2021/11/24 05:05:51;;;;;;;12.98;9.68;;;14.80;61.10;;;;;;4256544;27;20092;-73
2021/11/24 05:07:55;;;;;;;13.20;9.73;;;14.70;61.10;;;;;;4262556;27;20046;-74
2021/11/24 05:09:58;;;;;;;11.57;9.38;;;14.80;61.10;;;;;;4244883;27;20113;-73
2021/11/24 05:12:03;;;;;;;11.20;8.95;;;14.70;61.00;;;;;;4257281;27;20118;-74
2021/11/24 05:14:12;;;;;;;11.82;8.95;;;14.70;61.10;;;;;;4267677;27;20058;-74
2021/11/24 05:16:15;;;;;;;11.20;8.77;;;14.70;61.00;;;;;;4256030;27;20047;-74
2021/11/24 05:18:24;;;;;;;12.15;9.38;;;14.70;61.00;;;;;;4262837;27;20247;-73
2021/11/24 05:20:28;;;;;;;12.10;9.15;;;14.70;61.10;;;;;;4261275;27;20073;-73
2021/11/24 05:22:33;;;;;;;12.60;9.10;;;14.70;61.10;;;;;;4223699;28;20059;-73
2021/11/24 05:24:36;;;;;;;12.07;9.40;;;14.70;61.10;;;;;;4232256;28;20736;-71
2021/11/24 05:26:39;;;;;;;10.75;8.95;;;14.70;61.10;;;;;;4222291;28;20060;-71
2021/11/24 05:28:42;;;;;;;12.70;9.15;;;14.70;61.10;;;;;;4222917;28;20048;-73
2021/11/24 05:30:45;;;;;;;13.73;10.07;;;14.60;61.10;;;;;;4233792;28;20063;-71
2021/11/24 05:32:49;;;;;;;11.88;9.48;;;14.60;61.10;;;;;;4237481;28;20056;-70
2021/11/24 05:34:52;;;;;;;11.68;8.93;;;14.60;61.10;;;;;;4227668;28;20102;-71
2021/11/24 05:36:55;;;;;;;11.60;9.23;;;14.60;61.20;;;;;;4238693;28;20098;-73
2021/11/24 05:38:59;;;;;;;11.10;8.43;;;14.60;61.10;;;;;;4232251;28;20071;-73
2021/11/24 05:41:02;;;;;;;10.50;8.68;;;14.60;61.10;;;;;;4232443;28;20063;-74
2021/11/24 05:43:06;;;;;;;11.07;9.05;;;14.60;61.10;;;;;;4236643;28;20055;-74
2021/11/24 05:45:26;;;;;;;14.02;9.38;;;14.60;61.10;;;;;;4233416;28;20051;-74
2021/11/24 05:50:10;;;;;;;12.57;9.50;;;14.60;61.20;;;;;;4226086;28;20044;-74
2021/11/24 05:52:13;;;;;;;14.32;10.00;;;14.60;61.10;;;;;;4237869;28;20075;-74
2021/11/24 05:54:19;;;;;;;12.63;9.25;;;14.60;61.10;;;;;;4233308;28;20155;-74
2021/11/24 05:56:22;;;;;;;14.10;9.30;;;14.50;61.20;;;;;;4231162;28;20048;-73
2021/11/24 05:58:25;;;;;;;11.40;8.75;;;14.50;61.10;;;;;;4238403;28;20062;-73
2021/11/24 06:00:28;;;;;;;12.48;9.70;;;14.50;61.10;;;;;;4233158;28;20235;-73
2021/11/24 06:02:31;;;;;;;13.07;9.90;;;14.50;61.10;;;;;;4221797;28;20052;-73
2021/11/24 06:04:35;;;;;;;12.93;9.13;;;14.50;61.10;;;;;;4225565;28;20047;-71
2021/11/24 06:06:38;;;;;;;14.15;9.98;;;14.50;61.10;;;;;;4229957;28;20052;-71
2021/11/24 06:08:41;;;;;;;10.90;8.50;;;14.50;61.20;;;;;;4221406;28;20056;-71
2021/11/24 06:10:46;;;;;;;12.15;9.20;;;14.50;61.10;;;;;;4233722;28;20332;-71
2021/11/24 06:12:49;;;;;;;12.75;9.52;;;14.50;61.20;;;;;;4221672;28;20051;-73
2021/11/24 06:14:52;;;;;;;12.45;8.63;;;14.50;61.20;;;;;;4225019;28;20222;-74
2021/11/24 06:16:55;;;;;;;13.27;8.88;;;14.50;61.20;;;;;;4228949;28;20098;-73
2021/11/24 06:18:58;;;;;;;13.15;8.57;;;14.50;61.20;;;;;;4221421;28;20052;-73
2021/11/24 06:21:01;;;;;;;10.18;8.50;;;14.50;61.10;;;;;;4241651;27;20063;-74
2021/11/24 06:23:04;;;;;;;9.60;8.32;;;14.50;61.20;;;;;;4255364;27;20082;-73
2021/11/24 06:25:09;;;;;;;12.70;9.40;;;14.50;61.30;;;;;;4258329;27;20111;-73
2021/11/24 06:27:14;;;;;;;;;;;14.50;61.30;;;;;;4264915;27;20106;-74
2021/11/24 06:29:17;;;;;;;12.10;8.77;;;14.50;61.30;;;;;;4255185;27;19922;-73
2021/11/24 06:31:22;;;;;;;12.15;8.73;;;14.50;61.30;;;;;;4266892;27;20111;-74
2021/11/24 06:33:26;;;;;;;;;;;14.50;61.30;;;;;;4255707;27;20066;-75
2021/11/24 06:35:29;;;;;;;12.77;9.75;;;14.50;61.30;;;;;;4258307;27;19923;-74
2021/11/24 06:37:32;;;;;;;12.27;8.82;;;14.40;61.30;;;;;;4264600;27;20059;-74
2021/11/24 06:39:35;;;;;;;12.65;8.88;;;14.40;61.30;;;;;;4255095;27;20347;-74
2021/11/24 06:41:38;;;;;;;10.57;8.50;;;14.40;61.20;;;;;;4266412;27;20106;-74
2021/11/24 06:43:45;;;;;;;11.55;8.68;;;14.40;61.30;;;;;;4253523;27;20081;-71
2021/11/24 06:45:49;;;;;;;10.23;8.25;;;14.40;61.20;;;;;;4258012;27;20047;-73
2021/11/24 06:47:52;;;;;;;11.00;8.15;;;14.40;61.80;;;;;;4264818;27;20071;-74
2021/11/24 06:49:55;;;;;;;11.90;8.60;;;14.40;61.20;;;;;;4255174;27;20078;-72
2021/11/24 06:51:58;;;;;;;10.77;8.75;;;14.40;61.20;;;;;;4256493;27;20059;-73
2021/11/24 06:54:01;;;;;;;12.77;8.77;;;14.40;61.20;;;;;;4271200;27;20050;-73
2021/11/24 06:56:04;;;;;;;11.82;8.65;;;14.40;61.20;;;;;;4272899;27;20338;-72
2021/11/24 06:58:07;;;;;;;11.10;8.18;;;14.40;61.20;;;;;;4265521;27;20047;-72
2021/11/24 07:00:13;;;;;;;10.35;8.32;;;14.40;61.10;;;;;;4275647;27;20054;-73
2021/11/24 07:02:16;;;;;;;12.05;7.97;;;14.40;61.10;;;;;;4264273;27;20116;-73
2021/11/24 07:04:20;;;;;;;11.48;8.43;;;14.40;61.10;;;;;;4274168;27;20122;-72
2021/11/24 07:06:23;;;;;;;12.25;8.00;;;14.40;61.00;;;;;;4273217;27;20392;-73
2021/11/24 07:08:26;;;;;;;11.05;8.90;;;14.40;61.00;;;;;;4264973;27;20106;-73
2021/11/24 07:10:29;;;;;;;9.75;7.90;;;14.40;61.10;;;;;;4275530;27;20069;-73
2021/11/24 07:12:32;;;;;;;11.02;8.00;;;14.40;61.10;;;;;;4264572;27;20058;-72
2021/11/24 07:14:36;;;;;;;11.30;9.07;;;14.40;61.00;;;;;;4254861;27;20051;-72
2021/11/24 07:16:40;;;;;;;11.75;8.77;;;14.30;61.00;;;;;;4273071;27;20046;-72
2021/11/24 07:18:43;;;;;;;10.40;8.20;;;14.40;61.00;;;;;;4264329;27;20055;-73
2021/11/24 07:20:46;;;;;;;12.70;8.40;;;14.30;61.00;;;;;;4275295;27;20353;-74
2021/11/24 07:22:50;;;;;;;8.98;7.40;;;14.30;61.00;;;;;;4264720;27;20055;-73
2021/11/24 07:24:53;;;;;;;10.85;8.02;;;14.30;61.00;;;;;;4272397;27;20100;-74
2021/11/24 07:26:56;;;;;;;10.02;8.10;;;14.30;61.00;;;;;;4273807;27;20066;-75
2021/11/24 07:28:59;;;;;;;10.43;7.80;;;14.30;61.00;;;;;;4245195;27;20073;-73
2021/11/24 07:31:02;;;;;;;9.93;8.10;;;14.30;61.00;;;;;;4275121;27;20070;-73
2021/11/24 07:33:06;;;;;;;9.15;7.32;;;14.30;61.00;;;;;;4265816;27;20066;-73
2021/11/24 07:35:10;;;;;;;11.00;8.45;;;14.30;61.00;;;;;;4272267;27;20287;-73
2021/11/24 07:37:13;;;;;;;9.15;7.50;;;14.30;61.10;;;;;;4274576;27;20162;-73
2021/11/24 07:39:16;;;;;;;8.77;7.68;;;14.30;61.00;;;;;;4258837;27;20062;-73
2021/11/24 07:41:19;;;;;;;11.13;7.90;;;14.30;61.00;;;;;;4257976;27;20116;-73
2021/11/24 07:43:22;;;;;;;10.27;7.38;;;14.30;61.00;;;;;;4266401;27;20054;-73
2021/11/24 07:45:25;;;;;;;10.30;7.70;;;14.20;61.00;;;;;;4261647;27;20115;-73
2021/11/24 07:47:28;;;;;;;10.02;7.20;;;14.20;61.00;;;;;;4258935;27;20354;-73
2021/11/24 07:49:33;;;;;;;10.65;7.63;;;14.20;61.00;;;;;;4269130;27;20071;-73
2021/11/24 07:51:37;;;;;;;10.15;7.90;;;14.20;61.00;;;;;;4257474;27;20074;-72
2021/11/24 07:53:40;;;;;;;9.85;8.00;;;14.20;60.90;;;;;;4265738;27;20239;-73
2021/11/24 07:55:43;;;;;;;9.98;7.53;;;14.20;60.90;;;;;;4261504;27;20111;-73
2021/11/24 07:57:46;;;;;;;10.60;7.35;;;14.20;60.90;;;;;;4258732;27;20074;-73
2021/11/24 07:59:49;;;;;;;8.43;7.20;;;14.20;60.90;;;;;;4269010;27;20047;-73
2021/11/24 08:01:52;;;;;;;9.52;7.35;;;14.20;60.90;;;;;;4257729;27;20055;-73
2021/11/24 08:03:55;;;;;;;10.13;7.80;;;14.20;61.00;;;;;;4264852;27;20083;-74
2021/11/24 08:05:59;;;;;;;11.48;7.97;;;14.20;60.90;;;;;;4261500;27;20069;-72
2021/11/24 08:08:03;;;;;;;9.95;8.00;;;14.20;60.90;;;;;;4258291;27;20074;-73
2021/11/24 08:10:10;;;;;;;10.35;8.30;;;14.20;61.00;;;;;;4268120;27;20083;-73
2021/11/24 08:12:13;;;;;;;10.43;7.50;;;14.20;60.90;;;;;;4254904;27;20114;-74
2021/11/24 08:14:16;;;;;;;11.32;7.72;;;14.20;61.00;;;;;;4264549;27;20047;-72
2021/11/24 08:16:19;;;;;;;9.90;7.90;;;14.20;61.00;;;;;;4262088;27;20292;-73
2021/11/24 08:18:22;;;;;;;10.70;7.13;;;14.20;60.90;;;;;;4258603;27;20129;-73
2021/11/24 08:20:25;;;;;;;9.88;7.70;;;14.20;60.90;;;;;;4268893;27;20115;-73
2021/11/24 08:22:30;;;;;;;10.32;7.75;;;14.10;60.90;;;;;;4238963;28;20115;-73
2021/11/24 08:24:33;;;;;;;11.75;7.82;;;14.10;60.90;;;;;;4258569;27;20488;-73
2021/11/24 08:26:36;;;;;;;11.77;7.53;;;14.10;61.00;;;;;;4250862;27;20074;-73
2021/11/24 08:28:39;;;;;;;9.55;7.93;;;14.10;61.00;;;;;;4271798;27;20386;-74
2021/11/24 08:30:42;;;;;;;10.82;7.22;;;14.20;61.60;;;;;;4263235;27;20063;-73
2021/11/24 08:32:46;;;;;;;11.20;7.82;;;14.10;61.00;;;;;;4275389;27;20380;-73
2021/11/24 08:34:49;;;;;;;11.65;8.00;;;14.10;61.00;;;;;;4267800;27;20047;-73
2021/11/24 08:36:52;;;;;;;10.05;7.85;;;14.10;61.00;;;;;;4268578;27;20051;-72
2021/11/24 08:38:57;;;;;;;10.38;7.70;;;14.10;61.00;;;;;;4272819;27;20090;-73
2021/11/24 08:41:18;;;;;;;15.02;8.18;;;14.10;61.10;;;;;;4262009;27;20208;-73
2021/11/24 08:43:21;;;;;;;9.80;7.20;;;14.10;61.10;;;;;;4273712;27;20331;-73
2021/11/24 08:45:25;;;;;;;9.45;7.63;;;14.10;61.00;;;;;;4265271;27;20077;-73
2021/11/24 08:47:28;;;;;;;10.30;7.40;;;14.10;61.00;;;;;;4269884;27;20046;-73
2021/11/24 08:49:34;;;;;;;11.77;7.20;;;14.10;61.10;;;;;;4271375;27;20373;-73
2021/11/24 08:51:38;;;;;;;10.68;7.35;;;14.10;61.10;;;;;;4268405;27;20075;-73
2021/11/24 08:53:41;;;;;;;10.07;7.75;;;14.10;61.10;;;;;;4256875;27;20305;-72
2021/11/24 08:55:46;;;;;;;11.82;7.82;;;14.10;61.10;;;;;;4265080;27;20076;-74
2021/11/24 08:57:49;;;;;;;10.40;7.57;;;14.10;61.20;;;;;;4260392;27;20303;-73
2021/11/24 08:59:52;;;;;;;9.80;7.18;;;14.10;61.10;;;;;;4257688;27;20046;-73
2021/11/24 09:01:56;;;;;;;9.95;7.43;;;14.10;61.10;;;;;;4268380;27;20062;-73
2021/11/24 09:03:59;;;;;;;10.95;7.38;;;14.10;61.10;;;;;;4256493;27;20244;-73
2021/11/24 09:06:04;;;;;;;10.25;7.57;;;14.10;61.10;;;;;;4246170;27;20066;-73
2021/11/24 09:08:07;;;;;;;9.90;7.65;;;14.10;61.20;;;;;;4260780;27;20051;-72
2021/11/24 09:10:10;;;;;;;12.65;8.32;;;14.10;61.10;;;;;;4257828;27;20051;-73
2021/11/24 09:12:14;;;;;;;12.98;8.38;;;14.10;61.20;;;;;;4267741;27;20047;-73
2021/11/24 09:14:19;;;;;;;10.43;7.80;;;14.10;61.20;;;;;;4255491;27;20066;-73
2021/11/24 09:16:41;;;;;;;10.43;8.00;;;14.00;61.10;;;;;;4266786;27;20360;-73
2021/11/24 09:18:44;;;;;;;12.77;8.55;;;14.00;61.40;;;;;;4257965;27;20636;-73
2021/11/24 09:20:47;;;;;;;15.77;8.10;;;14.00;61.50;;;;;;4260686;27;20346;-72
2021/11/24 09:22:51;;;;;;;10.20;7.88;;;14.10;62.30;;;;;;4261393;27;20050;-72
2021/11/24 09:24:59;;;;;;;11.77;8.15;;;14.10;62.10;;;;;;4273052;27;20078;-73
2021/11/24 09:27:07;;;;;;;13.05;8.05;;;14.10;62.00;;;;;;4262320;27;20092;-73
2021/11/24 09:29:14;;;;;;;14.63;8.23;;;14.10;62.00;;;;;;4253989;27;20118;-73
2021/11/24 09:31:17;;;;;;;13.73;8.07;;;14.10;61.80;;;;;;4270142;27;20567;-73
2021/11/24 09:33:23;;;;;;;14.02;8.05;;;14.20;61.90;;;;;;4263534;27;20496;-73
2021/11/24 09:35:27;;;;;;;15.70;8.45;;;14.20;61.80;;;;;;4255753;27;20051;-74
2021/11/24 09:37:30;;;;;;;14.23;7.80;;;14.20;61.80;;;;;;4261934;27;20047;-73
2021/11/24 09:39:33;;;;;;;12.23;7.75;;;14.30;61.60;;;;;;4256630;27;20076;-73
2021/11/24 09:41:41;;;;;;;9.48;6.88;;;14.30;61.50;;;;;;4260151;27;20317;-73
2021/11/24 09:43:48;;;;;;;11.70;7.90;;;14.30;61.40;;;;;;4263710;27;20070;-73
2021/11/24 09:45:53;;;;;;;11.20;7.35;;;14.30;61.40;;;;;;4272674;27;20074;-73
2021/11/24 09:47:58;;;;;;;;;;;14.30;61.50;;;;;;4260411;27;20119;-73
2021/11/24 09:50:04;;;;;;;11.25;8.07;;;14.30;61.40;;;;;;4255256;27;20167;-72
2021/11/24 09:52:07;;;;;;;9.50;7.25;;;14.20;61.30;;;;;;4259821;27;20106;-72
2021/11/24 09:54:12;;;;;;;11.25;7.60;;;14.30;61.40;;;;;;4264029;27;20074;-77
2021/11/24 09:56:17;;;;;;;12.80;8.23;;;14.30;61.50;;;;;;4255722;27;20096;-73
2021/11/24 09:58:25;;;;;;;11.45;8.27;;;14.30;61.50;;;;;;4242617;27;20071;-74
2021/11/24 10:00:28;;;;;;;13.27;8.07;;;14.30;61.20;;;;;;4272883;27;20114;-74
2021/11/24 10:02:36;;;;;;;12.50;7.97;;;14.40;61.30;;;;;;4268002;27;20051;-73
2021/11/24 10:04:43;;;;;;;12.63;8.45;;;14.30;61.10;;;;;;4264573;27;20106;-72
2021/11/24 10:06:48;;;;;;;17.00;8.93;;;14.30;61.10;;;;;;4271997;27;20050;-73
2021/11/24 10:08:51;;;;;;;13.10;8.88;;;14.30;61.10;;;;;;4259734;27;20260;-73
2021/11/24 10:10:54;;;;;;;15.73;9.60;;;14.30;61.30;;;;;;4272217;27;20349;-74
2021/11/24 10:12:57;;;;;;;19.33;9.48;;;14.30;61.30;;;;;;4266496;27;20043;-75
2021/11/24 10:15:02;;;;;;;11.60;7.80;;;14.40;61.40;;;;;;4260256;27;20370;-73
2021/11/24 10:17:06;;;;;;;;;;;14.40;61.30;;;;;;4269084;27;20051;-74
2021/11/24 10:19:13;;;;;;;17.75;8.88;;;14.40;62.50;;;;;;4260289;27;20002;-75
2021/11/24 10:21:21;;;;;;;16.00;9.23;;;14.30;62.00;;;;;;4269732;27;20043;-76
2021/11/24 10:23:33;;;;;;;81.40;13.93;;;14.40;61.80;;;;;;4267986;27;20057;-73
2021/11/24 10:25:36;;;;;;;32.67;10.20;;;14.40;62.70;;;;;;4265925;27;20051;-70
2021/11/24 10:27:43;;;;;;;20.55;10.02;;;14.40;62.30;;;;;;4243462;27;20054;-71
2021/11/24 10:29:55;;;;;;;20.67;9.27;;;14.40;63.60;;;;;;4265784;27;20050;-74
2021/11/24 10:32:01;;;;;;;16.33;9.82;;;14.40;62.50;;;;;;4269073;27;20046;-71
2021/11/24 10:34:15;;;;;;;17.02;9.30;;;14.50;63.40;;;;;;4259281;27;20055;-73
2021/11/24 10:36:22;;;;;;;21.27;10.70;;;14.50;62.70;;;;;;4255287;27;20051;-71
2021/11/24 10:38:25;;;;;;;18.08;10.00;;;14.50;62.40;;;;;;4270381;27;20329;-74
2021/11/24 10:40:41;;;;;;;15.23;9.48;;;14.50;62.60;;;;;;4269399;27;20068;-72
2021/11/24 10:42:44;;;;;;;16.45;8.13;;;14.60;62.40;;;;;;4271725;27;20059;-70
2021/11/24 10:44:49;;;;;;;17.67;9.05;;;14.50;62.30;;;;;;4267279;27;20070;-71